sensor_id;sensor_type;location;lat;lon;timestamp;temperature;humidity
11944;DHT22;6031;50.220;10.122;2023-03-31T00:00:32;10.40;1.00
11944;DHT22;6031;50.220;10.122;2023-03-31T00:02:58;10.50;99.90
11944;DHT22;6031;50.220;10.122;2023-03-31T00:05:24;10.50;99.90
11944;DHT22;6031;50.220;10.122;2023-03-31T00:07:54;10.40;99.90
11944;DHT22;6031;50.220;10.122;2023-03-31T00:10:27;10.50;1.00
11944;DHT22;6031;50.220;10.122;2023-03-31T00:12:52;10.50;1.00
11944;DHT22;6031;50.220;10.122;2023-03-31T00:15:18;10.50;1.00
11944;DHT22;6031;50.220;10.122;2023-03-31T00:17:43;10.50;1.00
11944;DHT22;6031;50.220;10.122;2023-03-31T00:20:11;10.50;1.00
11944;DHT22;6031;50.220;10.122;2023-03-31T00:22:38;10.40;99.90
11944;DHT22;6031;50.220;10.122;2023-03-31T00:25:07;10.30;1.00
11944;DHT22;6031;50.220;10.122;2023-03-31T00:27:33;10.30;99.90
11944;DHT22;6031;50.220;10.122;2023-03-31T00:29:58;10.30;1.00
11944;DHT22;6031;50.220;10.122;2023-03-31T00:32:24;10.30;1.00
11944;DHT22;6031;50.220;10.122;2023-03-31T00:34:49;10.20;1.00
11944;DHT22;6031;50.220;10.122;2023-03-31T00:37:15;10.20;13.50
11944;DHT22;6031;50.220;10.122;2023-03-31T00:39:41;10.00;1.00
11944;DHT22;6031;50.220;10.122;2023-03-31T00:42:09;10.00;99.90
11944;DHT22;6031;50.220;10.122;2023-03-31T00:47:41;9.80;1.00
11944;DHT22;6031;50.220;10.122;2023-03-31T00:50:21;9.70;1.00
11944;DHT22;6031;50.220;10.122;2023-03-31T00:52:52;9.70;1.00
11944;DHT22;6031;50.220;10.122;2023-03-31T00:55:24;9.60;1.00
11944;DHT22;6031;50.220;10.122;2023-03-31T00:57:53;9.50;1.00
11944;DHT22;6031;50.220;10.122;2023-03-31T01:00:19;9.40;1.00
11944;DHT22;6031;50.220;10.122;2023-03-31T01:02:48;9.30;92.40
11944;DHT22;6031;50.220;10.122;2023-03-31T01:05:23;9.20;99.90
11944;DHT22;6031;50.220;10.122;2023-03-31T01:07:50;9.10;99.90
11944;DHT22;6031;50.220;10.122;2023-03-31T01:10:17;9.10;99.90
11944;DHT22;6031;50.220;10.122;2023-03-31T01:12:49;9.10;99.90
11944;DHT22;6031;50.220;10.122;2023-03-31T01:15:18;9.10;99.90
11944;DHT22;6031;50.220;10.122;2023-03-31T01:17:44;9.10;99.90
11944;DHT22;6031;50.220;10.122;2023-03-31T01:31:42;8.70;99.90
11944;DHT22;6031;50.220;10.122;2023-03-31T01:34:37;8.50;99.90
11944;DHT22;6031;50.220;10.122;2023-03-31T01:40:22;8.50;99.90
11944;DHT22;6031;50.220;10.122;2023-03-31T01:45:46;8.60;99.90
11944;DHT22;6031;50.220;10.122;2023-03-31T01:48:43;8.60;99.90
11944;DHT22;6031;50.220;10.122;2023-03-31T01:51:18;8.80;99.90
11944;DHT22;6031;50.220;10.122;2023-03-31T01:54:11;8.70;99.90
11944;DHT22;6031;50.220;10.122;2023-03-31T01:56:50;8.70;99.90
11944;DHT22;6031;50.220;10.122;2023-03-31T01:59:26;8.70;99.90
11944;DHT22;6031;50.220;10.122;2023-03-31T02:01:56;8.80;99.90
11944;DHT22;6031;50.220;10.122;2023-03-31T02:04:47;8.70;99.90
11944;DHT22;6031;50.220;10.122;2023-03-31T02:07:18;8.80;99.90
11944;DHT22;6031;50.220;10.122;2023-03-31T02:10:16;8.80;99.90
11944;DHT22;6031;50.220;10.122;2023-03-31T02:12:43;8.90;99.90
11944;DHT22;6031;50.220;10.122;2023-03-31T02:15:17;9.00;99.90
11944;DHT22;6031;50.220;10.122;2023-03-31T02:17:44;9.10;99.90
11944;DHT22;6031;50.220;10.122;2023-03-31T02:20:13;9.20;99.90
11944;DHT22;6031;50.220;10.122;2023-03-31T02:22:44;9.20;99.90
11944;DHT22;6031;50.220;10.122;2023-03-31T02:25:13;9.20;99.90
11944;DHT22;6031;50.220;10.122;2023-03-31T02:27:42;9.20;99.90
11944;DHT22;6031;50.220;10.122;2023-03-31T02:30:10;9.20;99.90
11944;DHT22;6031;50.220;10.122;2023-03-31T02:32:38;9.30;99.90
11944;DHT22;6031;50.220;10.122;2023-03-31T02:35:07;9.30;99.90
11944;DHT22;6031;50.220;10.122;2023-03-31T02:37:34;9.30;99.90
11944;DHT22;6031;50.220;10.122;2023-03-31T02:40:05;9.30;99.90
11944;DHT22;6031;50.220;10.122;2023-03-31T02:42:38;9.30;99.90
11944;DHT22;6031;50.220;10.122;2023-03-31T02:45:06;9.20;99.90
11944;DHT22;6031;50.220;10.122;2023-03-31T02:47:51;9.20;99.90
11944;DHT22;6031;50.220;10.122;2023-03-31T02:50:17;9.20;99.90
11944;DHT22;6031;50.220;10.122;2023-03-31T02:53:20;9.10;99.90
11944;DHT22;6031;50.220;10.122;2023-03-31T02:55:58;9.20;99.90
11944;DHT22;6031;50.220;10.122;2023-03-31T03:01:43;9.10;99.90
11944;DHT22;6031;50.220;10.122;2023-03-31T03:04:29;9.00;99.90
11944;DHT22;6031;50.220;10.122;2023-03-31T03:13:15;8.80;99.90
11944;DHT22;6031;50.220;10.122;2023-03-31T03:15:44;8.70;99.90
11944;DHT22;6031;50.220;10.122;2023-03-31T03:18:11;8.60;99.90
11944;DHT22;6031;50.220;10.122;2023-03-31T03:20:38;8.60;99.90
11944;DHT22;6031;50.220;10.122;2023-03-31T03:23:04;8.60;99.90
11944;DHT22;6031;50.220;10.122;2023-03-31T03:25:30;8.50;99.90
11944;DHT22;6031;50.220;10.122;2023-03-31T03:27:56;8.40;99.90
11944;DHT22;6031;50.220;10.122;2023-03-31T03:30:21;8.40;99.90
11944;DHT22;6031;50.220;10.122;2023-03-31T03:32:47;8.40;99.90
11944;DHT22;6031;50.220;10.122;2023-03-31T03:35:12;8.40;99.90
11944;DHT22;6031;50.220;10.122;2023-03-31T03:37:38;8.40;99.90
11944;DHT22;6031;50.220;10.122;2023-03-31T03:40:04;8.30;99.90
11944;DHT22;6031;50.220;10.122;2023-03-31T03:42:31;8.30;99.90
11944;DHT22;6031;50.220;10.122;2023-03-31T03:44:56;8.20;99.90
11944;DHT22;6031;50.220;10.122;2023-03-31T03:47:22;8.30;99.90
11944;DHT22;6031;50.220;10.122;2023-03-31T03:49:48;8.30;99.90
11944;DHT22;6031;50.220;10.122;2023-03-31T03:52:14;8.30;99.90
11944;DHT22;6031;50.220;10.122;2023-03-31T03:54:40;8.30;99.90
11944;DHT22;6031;50.220;10.122;2023-03-31T03:57:05;8.20;99.90
11944;DHT22;6031;50.220;10.122;2023-03-31T03:59:31;8.30;99.90
11944;DHT22;6031;50.220;10.122;2023-03-31T04:01:57;8.40;99.90
11944;DHT22;6031;50.220;10.122;2023-03-31T04:04:22;8.40;99.90
11944;DHT22;6031;50.220;10.122;2023-03-31T04:06:48;8.40;99.90
11944;DHT22;6031;50.220;10.122;2023-03-31T04:09:14;8.40;99.90
11944;DHT22;6031;50.220;10.122;2023-03-31T04:11:39;8.40;99.90
11944;DHT22;6031;50.220;10.122;2023-03-31T04:14:05;8.50;99.90
11944;DHT22;6031;50.220;10.122;2023-03-31T04:16:30;8.40;99.90
11944;DHT22;6031;50.220;10.122;2023-03-31T04:18:59;8.50;99.90
11944;DHT22;6031;50.220;10.122;2023-03-31T04:21:28;8.60;99.90
11944;DHT22;6031;50.220;10.122;2023-03-31T04:23:55;8.60;99.90
11944;DHT22;6031;50.220;10.122;2023-03-31T04:26:27;8.60;99.90
11944;DHT22;6031;50.220;10.122;2023-03-31T04:29:07;8.60;99.90
11944;DHT22;6031;50.220;10.122;2023-03-31T04:31:34;8.70;99.90
11944;DHT22;6031;50.220;10.122;2023-03-31T04:34:04;8.80;99.90
11944;DHT22;6031;50.220;10.122;2023-03-31T04:36:32;8.80;99.90
11944;DHT22;6031;50.220;10.122;2023-03-31T04:38:58;8.80;99.90
11944;DHT22;6031;50.220;10.122;2023-03-31T04:41:24;8.90;99.90
11944;DHT22;6031;50.220;10.122;2023-03-31T04:43:52;8.90;99.90
11944;DHT22;6031;50.220;10.122;2023-03-31T04:46:18;9.00;99.90
11944;DHT22;6031;50.220;10.122;2023-03-31T04:48:43;9.00;99.90
11944;DHT22;6031;50.220;10.122;2023-03-31T04:51:09;9.10;99.90
11944;DHT22;6031;50.220;10.122;2023-03-31T04:53:35;9.10;99.90
11944;DHT22;6031;50.220;10.122;2023-03-31T04:56:00;9.10;99.90
11944;DHT22;6031;50.220;10.122;2023-03-31T04:58:26;9.00;99.90
11944;DHT22;6031;50.220;10.122;2023-03-31T05:00:52;9.00;99.90
11944;DHT22;6031;50.220;10.122;2023-03-31T05:03:17;9.00;99.90
11944;DHT22;6031;50.220;10.122;2023-03-31T05:05:43;9.00;99.90
11944;DHT22;6031;50.220;10.122;2023-03-31T05:08:09;9.00;99.90
11944;DHT22;6031;50.220;10.122;2023-03-31T05:10:34;8.90;99.90
11944;DHT22;6031;50.220;10.122;2023-03-31T05:13:00;9.00;99.90
11944;DHT22;6031;50.220;10.122;2023-03-31T05:15:25;8.90;99.90
11944;DHT22;6031;50.220;10.122;2023-03-31T05:17:51;8.90;99.90
11944;DHT22;6031;50.220;10.122;2023-03-31T05:20:17;8.90;99.90
11944;DHT22;6031;50.220;10.122;2023-03-31T05:22:44;8.90;99.90
11944;DHT22;6031;50.220;10.122;2023-03-31T05:25:10;8.90;99.90
11944;DHT22;6031;50.220;10.122;2023-03-31T05:27:43;8.90;99.90
11944;DHT22;6031;50.220;10.122;2023-03-31T05:30:09;9.00;99.90
11944;DHT22;6031;50.220;10.122;2023-03-31T05:32:35;9.00;99.90
11944;DHT22;6031;50.220;10.122;2023-03-31T05:35:00;9.00;99.90
11944;DHT22;6031;50.220;10.122;2023-03-31T05:37:26;9.10;99.90
11944;DHT22;6031;50.220;10.122;2023-03-31T05:39:52;9.10;99.90
11944;DHT22;6031;50.220;10.122;2023-03-31T05:42:18;9.10;99.90
11944;DHT22;6031;50.220;10.122;2023-03-31T05:44:44;9.10;99.90
11944;DHT22;6031;50.220;10.122;2023-03-31T05:47:10;9.10;99.90
11944;DHT22;6031;50.220;10.122;2023-03-31T05:49:35;9.10;99.90
11944;DHT22;6031;50.220;10.122;2023-03-31T05:52:02;9.10;99.90
11944;DHT22;6031;50.220;10.122;2023-03-31T05:54:27;9.20;99.90
11944;DHT22;6031;50.220;10.122;2023-03-31T05:56:53;9.20;99.90
11944;DHT22;6031;50.220;10.122;2023-03-31T05:59:18;9.20;99.90
11944;DHT22;6031;50.220;10.122;2023-03-31T06:01:44;9.20;99.90
11944;DHT22;6031;50.220;10.122;2023-03-31T06:04:09;9.20;99.90
11944;DHT22;6031;50.220;10.122;2023-03-31T06:06:35;9.30;99.90
11944;DHT22;6031;50.220;10.122;2023-03-31T06:09:02;9.20;99.90
11944;DHT22;6031;50.220;10.122;2023-03-31T06:11:28;9.30;99.90
11944;DHT22;6031;50.220;10.122;2023-03-31T06:13:53;9.30;99.90
11944;DHT22;6031;50.220;10.122;2023-03-31T06:16:19;9.40;99.90
11944;DHT22;6031;50.220;10.122;2023-03-31T06:18:45;9.30;99.90
11944;DHT22;6031;50.220;10.122;2023-03-31T06:21:12;9.30;99.90
11944;DHT22;6031;50.220;10.122;2023-03-31T06:23:38;9.40;99.90
11944;DHT22;6031;50.220;10.122;2023-03-31T06:26:06;9.30;99.90
11944;DHT22;6031;50.220;10.122;2023-03-31T06:28:33;9.30;99.90
11944;DHT22;6031;50.220;10.122;2023-03-31T06:31:03;9.40;99.90
11944;DHT22;6031;50.220;10.122;2023-03-31T06:33:30;9.40;99.90
11944;DHT22;6031;50.220;10.122;2023-03-31T06:35:56;9.40;99.90
11944;DHT22;6031;50.220;10.122;2023-03-31T06:38:24;9.30;99.90
11944;DHT22;6031;50.220;10.122;2023-03-31T06:40:49;9.30;99.90
11944;DHT22;6031;50.220;10.122;2023-03-31T06:43:15;9.30;99.90
11944;DHT22;6031;50.220;10.122;2023-03-31T06:45:40;9.30;99.90
11944;DHT22;6031;50.220;10.122;2023-03-31T06:48:06;9.20;99.90
11944;DHT22;6031;50.220;10.122;2023-03-31T06:50:31;9.20;99.90
11944;DHT22;6031;50.220;10.122;2023-03-31T06:52:57;9.20;99.90
11944;DHT22;6031;50.220;10.122;2023-03-31T06:55:23;9.30;99.90
11944;DHT22;6031;50.220;10.122;2023-03-31T06:57:48;9.30;99.90
11944;DHT22;6031;50.220;10.122;2023-03-31T07:00:16;9.30;99.90
11944;DHT22;6031;50.220;10.122;2023-03-31T07:02:41;9.30;99.90
11944;DHT22;6031;50.220;10.122;2023-03-31T07:05:07;9.20;99.90
11944;DHT22;6031;50.220;10.122;2023-03-31T07:07:33;9.20;99.90
11944;DHT22;6031;50.220;10.122;2023-03-31T07:09:59;9.20;99.90
11944;DHT22;6031;50.220;10.122;2023-03-31T07:12:25;9.20;99.90
11944;DHT22;6031;50.220;10.122;2023-03-31T07:14:50;9.10;99.90
11944;DHT22;6031;50.220;10.122;2023-03-31T07:17:16;9.10;99.90
11944;DHT22;6031;50.220;10.122;2023-03-31T07:19:41;9.10;99.90
11944;DHT22;6031;50.220;10.122;2023-03-31T07:22:07;9.10;99.90
11944;DHT22;6031;50.220;10.122;2023-03-31T07:24:33;9.20;99.90
11944;DHT22;6031;50.220;10.122;2023-03-31T07:26:59;9.20;99.90
11944;DHT22;6031;50.220;10.122;2023-03-31T07:29:24;9.30;99.90
11944;DHT22;6031;50.220;10.122;2023-03-31T07:31:50;9.30;99.90
11944;DHT22;6031;50.220;10.122;2023-03-31T07:34:16;9.30;99.90
11944;DHT22;6031;50.220;10.122;2023-03-31T07:36:42;9.20;99.90
11944;DHT22;6031;50.220;10.122;2023-03-31T07:39:07;9.20;99.90
11944;DHT22;6031;50.220;10.122;2023-03-31T07:41:33;9.10;99.90
11944;DHT22;6031;50.220;10.122;2023-03-31T07:43:58;9.00;99.90
11944;DHT22;6031;50.220;10.122;2023-03-31T07:46:26;9.00;99.90
11944;DHT22;6031;50.220;10.122;2023-03-31T07:48:53;9.00;99.90
11944;DHT22;6031;50.220;10.122;2023-03-31T07:51:21;9.00;99.90
11944;DHT22;6031;50.220;10.122;2023-03-31T07:53:47;8.90;99.90
11944;DHT22;6031;50.220;10.122;2023-03-31T07:56:18;8.90;99.90
11944;DHT22;6031;50.220;10.122;2023-03-31T07:58:44;8.90;99.90
11944;DHT22;6031;50.220;10.122;2023-03-31T08:01:13;8.80;99.90
11944;DHT22;6031;50.220;10.122;2023-03-31T08:03:41;8.90;99.90
11944;DHT22;6031;50.220;10.122;2023-03-31T08:06:07;8.80;99.90
11944;DHT22;6031;50.220;10.122;2023-03-31T08:08:32;8.90;99.90
11944;DHT22;6031;50.220;10.122;2023-03-31T08:10:58;8.80;99.90
11944;DHT22;6031;50.220;10.122;2023-03-31T08:13:24;8.90;99.90
11944;DHT22;6031;50.220;10.122;2023-03-31T08:15:50;8.90;99.90
11944;DHT22;6031;50.220;10.122;2023-03-31T08:18:16;8.90;99.90
11944;DHT22;6031;50.220;10.122;2023-03-31T08:20:41;8.90;99.90
11944;DHT22;6031;50.220;10.122;2023-03-31T08:23:07;8.90;99.90
11944;DHT22;6031;50.220;10.122;2023-03-31T08:25:36;8.90;99.90
11944;DHT22;6031;50.220;10.122;2023-03-31T08:28:01;8.90;99.90
11944;DHT22;6031;50.220;10.122;2023-03-31T08:30:27;8.90;99.90
11944;DHT22;6031;50.220;10.122;2023-03-31T08:32:52;9.00;99.90
11944;DHT22;6031;50.220;10.122;2023-03-31T08:35:18;8.90;99.90
11944;DHT22;6031;50.220;10.122;2023-03-31T08:37:43;9.00;99.90
11944;DHT22;6031;50.220;10.122;2023-03-31T08:40:18;9.00;99.90
11944;DHT22;6031;50.220;10.122;2023-03-31T08:42:46;9.00;99.90
11944;DHT22;6031;50.220;10.122;2023-03-31T08:45:20;9.10;99.90
11944;DHT22;6031;50.220;10.122;2023-03-31T08:47:49;9.10;99.90
11944;DHT22;6031;50.220;10.122;2023-03-31T08:50:19;9.00;99.90
11944;DHT22;6031;50.220;10.122;2023-03-31T08:53:23;9.00;99.90
11944;DHT22;6031;50.220;10.122;2023-03-31T08:55:54;9.00;99.90
11944;DHT22;6031;50.220;10.122;2023-03-31T08:58:27;9.00;99.90
11944;DHT22;6031;50.220;10.122;2023-03-31T09:06:58;9.20;99.90
11944;DHT22;6031;50.220;10.122;2023-03-31T09:15:01;9.20;99.90
11944;DHT22;6031;50.220;10.122;2023-03-31T09:17:40;9.30;99.90
11944;DHT22;6031;50.220;10.122;2023-03-31T09:20:16;9.40;99.90
11944;DHT22;6031;50.220;10.122;2023-03-31T09:22:52;9.70;99.90
11944;DHT22;6031;50.220;10.122;2023-03-31T09:25:24;9.90;99.90
11944;DHT22;6031;50.220;10.122;2023-03-31T09:27:51;10.40;99.90
11944;DHT22;6031;50.220;10.122;2023-03-31T09:30:23;10.80;99.90
11944;DHT22;6031;50.220;10.122;2023-03-31T09:32:53;11.00;99.90
11944;DHT22;6031;50.220;10.122;2023-03-31T09:35:24;10.80;99.90
11944;DHT22;6031;50.220;10.122;2023-03-31T09:37:51;10.70;99.90
11944;DHT22;6031;50.220;10.122;2023-03-31T09:40:20;10.70;99.90
11944;DHT22;6031;50.220;10.122;2023-03-31T09:42:48;10.60;99.90
11944;DHT22;6031;50.220;10.122;2023-03-31T09:45:17;10.70;99.90
11944;DHT22;6031;50.220;10.122;2023-03-31T09:47:48;10.80;99.90
11944;DHT22;6031;50.220;10.122;2023-03-31T09:50:14;10.90;99.90
11944;DHT22;6031;50.220;10.122;2023-03-31T09:52:48;10.90;99.90
11944;DHT22;6031;50.220;10.122;2023-03-31T09:56:02;11.00;99.90
11944;DHT22;6031;50.220;10.122;2023-03-31T09:58:13;11.00;99.90
11944;DHT22;6031;50.220;10.122;2023-03-31T10:00:43;11.00;99.90
11944;DHT22;6031;50.220;10.122;2023-03-31T10:03:21;10.90;99.90
11944;DHT22;6031;50.220;10.122;2023-03-31T10:05:50;10.60;99.90
11944;DHT22;6031;50.220;10.122;2023-03-31T10:10:48;10.40;99.90
11944;DHT22;6031;50.220;10.122;2023-03-31T10:13:18;10.40;99.90
11944;DHT22;6031;50.220;10.122;2023-03-31T10:15:44;10.40;99.90
11944;DHT22;6031;50.220;10.122;2023-03-31T10:18:18;10.50;99.90
11944;DHT22;6031;50.220;10.122;2023-03-31T10:20:49;10.60;99.90
11944;DHT22;6031;50.220;10.122;2023-03-31T10:23:22;10.80;99.90
11944;DHT22;6031;50.220;10.122;2023-03-31T10:25:48;11.10;99.90
11944;DHT22;6031;50.220;10.122;2023-03-31T10:28:17;11.80;99.90
11944;DHT22;6031;50.220;10.122;2023-03-31T10:30:51;13.00;99.90
11944;DHT22;6031;50.220;10.122;2023-03-31T10:33:21;14.80;99.90
11944;DHT22;6031;50.220;10.122;2023-03-31T10:35:56;15.10;1.00
11944;DHT22;6031;50.220;10.122;2023-03-31T10:38:33;16.20;13.70
11944;DHT22;6031;50.220;10.122;2023-03-31T10:41:00;17.00;94.40
11944;DHT22;6031;50.220;10.122;2023-03-31T10:43:29;16.80;8.90
11944;DHT22;6031;50.220;10.122;2023-03-31T10:45:58;17.00;35.20
11944;DHT22;6031;50.220;10.122;2023-03-31T10:48:32;17.90;1.00
11944;DHT22;6031;50.220;10.122;2023-03-31T10:51:19;18.10;99.90
11944;DHT22;6031;50.220;10.122;2023-03-31T10:53:51;18.60;1.00
11944;DHT22;6031;50.220;10.122;2023-03-31T10:56:37;19.80;99.90
11944;DHT22;6031;50.220;10.122;2023-03-31T11:13:15;11.20;61.70
11944;DHT22;6031;50.220;10.122;2023-03-31T11:15:58;10.60;1.00
11944;DHT22;6031;50.220;10.122;2023-03-31T11:18:40;10.80;1.00
11944;DHT22;6031;50.220;10.122;2023-03-31T11:21:26;11.30;1.00
11944;DHT22;6031;50.220;10.122;2023-03-31T11:40:14;15.30;99.90
11944;DHT22;6031;50.220;10.122;2023-03-31T11:42:56;15.10;99.90
11944;DHT22;6031;50.220;10.122;2023-03-31T11:45:42;15.90;99.90
11944;DHT22;6031;50.220;10.122;2023-03-31T11:48:21;15.80;1.00
11944;DHT22;6031;50.220;10.122;2023-03-31T11:50:49;16.80;1.00
11944;DHT22;6031;50.220;10.122;2023-03-31T11:53:22;16.60;1.00
11944;DHT22;6031;50.220;10.122;2023-03-31T11:55:50;16.00;1.00
11944;DHT22;6031;50.220;10.122;2023-03-31T11:58:43;15.90;1.00
11944;DHT22;6031;50.220;10.122;2023-03-31T12:01:19;15.60;1.00
11944;DHT22;6031;50.220;10.122;2023-03-31T12:03:58;14.70;99.90
11944;DHT22;6031;50.220;10.122;2023-03-31T12:06:39;14.70;1.00
11944;DHT22;6031;50.220;10.122;2023-03-31T12:09:29;14.30;44.40
11944;DHT22;6031;50.220;10.122;2023-03-31T12:12:11;13.90;99.90
11944;DHT22;6031;50.220;10.122;2023-03-31T12:15:21;13.30;99.90
11944;DHT22;6031;50.220;10.122;2023-03-31T12:17:59;13.30;1.00
11944;DHT22;6031;50.220;10.122;2023-03-31T12:20:38;13.40;1.00
11944;DHT22;6031;50.220;10.122;2023-03-31T12:23:11;13.80;1.00
11944;DHT22;6031;50.220;10.122;2023-03-31T12:28:35;14.60;1.00
11944;DHT22;6031;50.220;10.122;2023-03-31T12:31:04;14.90;1.00
11944;DHT22;6031;50.220;10.122;2023-03-31T12:33:36;15.50;1.00
11944;DHT22;6031;50.220;10.122;2023-03-31T12:39:21;16.40;99.90
11944;DHT22;6031;50.220;10.122;2023-03-31T12:56:24;16.40;99.90
11944;DHT22;6031;50.220;10.122;2023-03-31T12:58:50;17.60;1.00
11944;DHT22;6031;50.220;10.122;2023-03-31T13:01:24;18.40;1.00
11944;DHT22;6031;50.220;10.122;2023-03-31T13:09:05;19.50;1.00
11944;DHT22;6031;50.220;10.122;2023-03-31T13:11:38;19.60;1.00
11944;DHT22;6031;50.220;10.122;2023-03-31T13:14:21;18.50;1.00
11944;DHT22;6031;50.220;10.122;2023-03-31T13:16:49;17.70;1.00
11944;DHT22;6031;50.220;10.122;2023-03-31T13:19:34;16.30;28.00
11944;DHT22;6031;50.220;10.122;2023-03-31T13:22:02;15.00;99.90
11944;DHT22;6031;50.220;10.122;2023-03-31T13:24:29;15.00;1.00
11944;DHT22;6031;50.220;10.122;2023-03-31T13:27:44;15.10;99.90
11944;DHT22;6031;50.220;10.122;2023-03-31T13:29:43;15.40;1.00
11944;DHT22;6031;50.220;10.122;2023-03-31T13:35:40;15.10;1.00
11944;DHT22;6031;50.220;10.122;2023-03-31T13:38:01;14.40;99.90
11944;DHT22;6031;50.220;10.122;2023-03-31T13:51:57;11.70;76.00
11944;DHT22;6031;50.220;10.122;2023-03-31T13:55:02;11.60;1.00
11944;DHT22;6031;50.220;10.122;2023-03-31T14:02:56;11.70;99.90
11944;DHT22;6031;50.220;10.122;2023-03-31T14:08:44;11.60;1.00
11944;DHT22;6031;50.220;10.122;2023-03-31T14:11:21;11.30;1.00
11944;DHT22;6031;50.220;10.122;2023-03-31T14:14:13;11.10;99.90
11944;DHT22;6031;50.220;10.122;2023-03-31T14:16:44;10.60;1.00
11944;DHT22;6031;50.220;10.122;2023-03-31T14:30:29;10.40;1.00
11944;DHT22;6031;50.220;10.122;2023-03-31T14:38:44;11.20;99.90
11944;DHT22;6031;50.220;10.122;2023-03-31T14:41:17;11.50;1.00
11944;DHT22;6031;50.220;10.122;2023-03-31T14:43:47;11.80;1.00
11944;DHT22;6031;50.220;10.122;2023-03-31T14:46:18;12.20;1.00
11944;DHT22;6031;50.220;10.122;2023-03-31T14:48:46;12.40;1.00
11944;DHT22;6031;50.220;10.122;2023-03-31T14:51:14;12.50;1.00
11944;DHT22;6031;50.220;10.122;2023-03-31T14:53:40;12.10;1.00
11944;DHT22;6031;50.220;10.122;2023-03-31T14:56:19;11.90;99.90
11944;DHT22;6031;50.220;10.122;2023-03-31T14:58:49;12.10;12.50
11944;DHT22;6031;50.220;10.122;2023-03-31T15:01:27;12.10;1.00
11944;DHT22;6031;50.220;10.122;2023-03-31T15:03:54;11.90;1.00
11944;DHT22;6031;50.220;10.122;2023-03-31T15:06:23;11.60;1.00
11944;DHT22;6031;50.220;10.122;2023-03-31T15:08:55;11.70;99.90
11944;DHT22;6031;50.220;10.122;2023-03-31T15:11:21;11.90;1.00
11944;DHT22;6031;50.220;10.122;2023-03-31T15:13:50;12.10;1.00
11944;DHT22;6031;50.220;10.122;2023-03-31T15:16:36;12.10;1.00
11944;DHT22;6031;50.220;10.122;2023-03-31T15:19:29;12.20;1.00
11944;DHT22;6031;50.220;10.122;2023-03-31T15:22:07;12.30;1.00
11944;DHT22;6031;50.220;10.122;2023-03-31T15:24:34;12.50;1.00
11944;DHT22;6031;50.220;10.122;2023-03-31T15:27:04;12.60;1.00
11944;DHT22;6031;50.220;10.122;2023-03-31T15:29:46;12.60;1.00
11944;DHT22;6031;50.220;10.122;2023-03-31T15:32:20;12.80;1.00
11944;DHT22;6031;50.220;10.122;2023-03-31T15:34:47;12.90;99.90
11944;DHT22;6031;50.220;10.122;2023-03-31T15:37:14;12.90;1.00
11944;DHT22;6031;50.220;10.122;2023-03-31T15:39:43;13.00;99.90
11944;DHT22;6031;50.220;10.122;2023-03-31T15:42:10;12.80;1.00
11944;DHT22;6031;50.220;10.122;2023-03-31T15:44:47;12.80;1.00
11944;DHT22;6031;50.220;10.122;2023-03-31T15:47:18;12.90;68.40
11944;DHT22;6031;50.220;10.122;2023-03-31T15:52:33;12.60;14.60
11944;DHT22;6031;50.220;10.122;2023-03-31T15:55:00;12.30;1.00
11944;DHT22;6031;50.220;10.122;2023-03-31T15:57:33;12.30;72.60
11944;DHT22;6031;50.220;10.122;2023-03-31T16:00:00;12.10;74.90
11944;DHT22;6031;50.220;10.122;2023-03-31T16:02:37;12.00;1.00
11944;DHT22;6031;50.220;10.122;2023-03-31T16:05:03;12.00;99.90
11944;DHT22;6031;50.220;10.122;2023-03-31T16:07:32;11.90;99.90
11944;DHT22;6031;50.220;10.122;2023-03-31T16:10:09;11.80;99.90
11944;DHT22;6031;50.220;10.122;2023-03-31T16:12:49;11.70;99.90
11944;DHT22;6031;50.220;10.122;2023-03-31T16:15:20;11.50;1.00
11944;DHT22;6031;50.220;10.122;2023-03-31T16:17:51;11.40;99.90
11944;DHT22;6031;50.220;10.122;2023-03-31T16:20:23;11.30;1.00
11944;DHT22;6031;50.220;10.122;2023-03-31T16:22:53;11.30;1.00
11944;DHT22;6031;50.220;10.122;2023-03-31T16:25:22;11.20;1.00
11944;DHT22;6031;50.220;10.122;2023-03-31T16:27:54;11.20;1.00
11944;DHT22;6031;50.220;10.122;2023-03-31T16:30:33;11.20;1.00
11944;DHT22;6031;50.220;10.122;2023-03-31T16:33:03;11.20;99.90
11944;DHT22;6031;50.220;10.122;2023-03-31T16:35:30;11.20;1.00
11944;DHT22;6031;50.220;10.122;2023-03-31T16:37:56;11.20;99.90
11944;DHT22;6031;50.220;10.122;2023-03-31T16:40:22;11.10;99.90
11944;DHT22;6031;50.220;10.122;2023-03-31T16:42:47;11.10;99.90
11944;DHT22;6031;50.220;10.122;2023-03-31T16:45:13;11.10;1.00
11944;DHT22;6031;50.220;10.122;2023-03-31T16:47:38;11.10;1.00
11944;DHT22;6031;50.220;10.122;2023-03-31T16:50:05;10.80;1.00
11944;DHT22;6031;50.220;10.122;2023-03-31T16:52:31;10.30;1.00
11944;DHT22;6031;50.220;10.122;2023-03-31T16:54:57;10.00;99.90
11944;DHT22;6031;50.220;10.122;2023-03-31T16:57:22;9.80;99.90
11944;DHT22;6031;50.220;10.122;2023-03-31T16:59:48;9.60;1.00
11944;DHT22;6031;50.220;10.122;2023-03-31T17:02:14;9.60;1.00
11944;DHT22;6031;50.220;10.122;2023-03-31T17:04:39;9.50;1.00
11944;DHT22;6031;50.220;10.122;2023-03-31T17:07:05;9.50;1.00
11944;DHT22;6031;50.220;10.122;2023-03-31T17:09:31;9.50;1.00
11944;DHT22;6031;50.220;10.122;2023-03-31T17:11:57;9.50;99.90
11944;DHT22;6031;50.220;10.122;2023-03-31T17:14:22;9.50;99.90
11944;DHT22;6031;50.220;10.122;2023-03-31T17:16:48;9.50;1.00
11944;DHT22;6031;50.220;10.122;2023-03-31T17:19:14;9.60;99.90
11944;DHT22;6031;50.220;10.122;2023-03-31T17:21:41;9.60;99.90
11944;DHT22;6031;50.220;10.122;2023-03-31T17:24:08;9.60;93.60
11944;DHT22;6031;50.220;10.122;2023-03-31T17:26:33;9.60;99.90
11944;DHT22;6031;50.220;10.122;2023-03-31T17:29:02;9.60;1.00
11944;DHT22;6031;50.220;10.122;2023-03-31T17:31:27;9.60;1.00
11944;DHT22;6031;50.220;10.122;2023-03-31T17:33:55;9.60;1.00
11944;DHT22;6031;50.220;10.122;2023-03-31T17:36:21;9.50;99.90
11944;DHT22;6031;50.220;10.122;2023-03-31T17:38:46;9.50;1.00
11944;DHT22;6031;50.220;10.122;2023-03-31T17:41:12;9.50;1.00
11944;DHT22;6031;50.220;10.122;2023-03-31T17:43:38;9.40;99.90
11944;DHT22;6031;50.220;10.122;2023-03-31T17:46:06;9.40;1.00
11944;DHT22;6031;50.220;10.122;2023-03-31T17:48:32;9.40;92.00
11944;DHT22;6031;50.220;10.122;2023-03-31T17:51:06;9.40;1.00
11944;DHT22;6031;50.220;10.122;2023-03-31T17:53:33;9.40;99.90
11944;DHT22;6031;50.220;10.122;2023-03-31T17:55:59;9.50;99.90
11944;DHT22;6031;50.220;10.122;2023-03-31T17:58:25;9.50;99.90
11944;DHT22;6031;50.220;10.122;2023-03-31T18:00:51;9.50;1.00
11944;DHT22;6031;50.220;10.122;2023-03-31T18:03:17;9.50;1.00
11944;DHT22;6031;50.220;10.122;2023-03-31T18:05:42;9.60;1.00
11944;DHT22;6031;50.220;10.122;2023-03-31T18:08:08;9.60;99.90
11944;DHT22;6031;50.220;10.122;2023-03-31T18:10:34;9.50;99.90
11944;DHT22;6031;50.220;10.122;2023-03-31T18:13:00;9.50;99.90
11944;DHT22;6031;50.220;10.122;2023-03-31T18:15:26;9.40;99.90
11944;DHT22;6031;50.220;10.122;2023-03-31T18:17:52;9.40;99.90
11944;DHT22;6031;50.220;10.122;2023-03-31T18:20:18;9.30;1.00
11944;DHT22;6031;50.220;10.122;2023-03-31T18:22:43;9.40;99.90
11944;DHT22;6031;50.220;10.122;2023-03-31T18:25:09;9.40;99.90